Time;durP1;ratioP1;P1;durP2;ratioP2;P2;SDS_P1;SDS_P2;PMS_P1;PMS_P2;Temp;Humidity;BMP_temperature;BMP_pressure;BME280_temperature;BME280_humidity;BME280_pressure;Samples;Min_cycle;Max_cycle;Signal;HPM_P1;HPM_P2
2022/04/15 00:02:25;;;;;;;13.80;8.52;;;14.20;97.90;;;;;;4978409;28;20106;-89
2022/04/15 00:04:50;;;;;;;13.60;8.55;;;14.10;98.00;;;;;;4989825;28;20023;-90
2022/04/15 00:07:17;;;;;;;15.45;10.07;;;14.10;98.10;;;;;;4973401;28;20030;-89
2022/04/15 00:09:43;;;;;;;14.05;9.13;;;14.00;98.20;;;;;;4970134;28;20026;-90
2022/04/15 00:12:17;;;;;;;11.50;9.18;;;14.00;98.30;;;;;;4976415;28;20387;-89
2022/04/15 00:14:44;;;;;;;13.70;8.75;;;14.00;98.40;;;;;;4993208;28;20028;-89
2022/04/15 00:17:11;;;;;;;13.52;8.80;;;13.90;98.40;;;;;;4983811;28;20026;-90
2022/04/15 00:19:37;;;;;;;14.45;8.93;;;13.90;98.60;;;;;;4975255;28;20027;-90
2022/04/15 00:22:02;;;;;;;13.90;8.93;;;13.90;99.00;;;;;;4970952;28;20069;-90
2022/04/15 00:24:28;;;;;;;12.82;8.93;;;13.80;98.80;;;;;;4987975;28;20113;-89
2022/04/15 00:26:54;;;;;;;14.93;10.00;;;13.80;98.90;;;;;;4968860;28;20026;-89
2022/04/15 00:29:19;;;;;;;14.50;8.93;;;13.70;99.00;;;;;;4973618;28;20485;-89
2022/04/15 00:31:45;;;;;;;12.25;8.90;;;13.70;99.10;;;;;;4990757;28;20121;-89
2022/04/15 00:34:11;;;;;;;16.60;9.30;;;13.70;99.20;;;;;;4965794;28;20058;-89
2022/04/15 00:36:36;;;;;;;15.82;9.30;;;13.60;99.30;;;;;;4975603;28;20029;-89
2022/04/15 00:39:02;;;;;;;11.63;8.27;;;13.60;99.40;;;;;;4963526;28;20042;-89
2022/04/15 00:41:28;;;;;;;13.05;8.57;;;13.60;99.50;;;;;;4953855;28;20075;-89
2022/04/15 00:43:54;;;;;;;12.20;8.98;;;13.50;99.50;;;;;;4968871;28;20054;-89
2022/04/15 00:46:20;;;;;;;14.32;8.98;;;13.50;99.70;;;;;;4975288;28;20069;-88
2022/04/15 00:48:46;;;;;;;14.15;9.15;;;13.50;99.80;;;;;;4975965;28;20030;-89
2022/04/15 00:51:11;;;;;;;12.20;8.98;;;13.40;99.90;;;;;;4947939;28;20125;-89
2022/04/15 00:53:40;;;;;;;12.95;9.75;;;13.40;99.90;;;;;;4949002;28;20026;-89
2022/04/15 00:56:08;;;;;;;12.00;9.07;;;13.40;99.90;;;;;;4979726;28;20026;-89
2022/04/15 00:58:36;;;;;;;14.70;9.02;;;13.40;99.90;;;;;;4971309;28;20019;-89
2022/04/15 01:01:02;;;;;;;12.68;9.65;;;13.30;99.90;;;;;;4976710;28;20026;-89
2022/04/15 01:03:29;;;;;;;13.25;9.82;;;13.30;99.90;;;;;;4992233;28;20026;-89
2022/04/15 01:05:59;;;;;;;12.70;9.48;;;13.30;99.90;;;;;;4984037;28;20053;-89
2022/04/15 01:08:30;;;;;;;16.67;10.60;;;13.20;99.90;;;;;;4982645;28;20436;-89
2022/04/15 01:11:02;;;;;;;14.85;9.45;;;13.20;99.90;;;;;;4988660;28;20030;-89
2022/04/15 01:13:32;;;;;;;14.95;10.02;;;13.10;99.90;;;;;;4983838;28;20030;-89
2022/04/15 01:15:58;;;;;;;14.50;9.85;;;13.20;99.90;;;;;;4988490;28;20025;-90
2022/04/15 01:18:24;;;;;;;12.98;9.43;;;13.10;99.90;;;;;;4959285;28;20122;-89
2022/04/15 01:20:53;;;;;;;15.57;9.68;;;13.10;99.90;;;;;;4990071;28;20138;-90
2022/04/15 01:23:20;;;;;;;14.35;9.65;;;13.00;99.90;;;;;;4991886;28;20023;-90
2022/04/15 01:25:46;;;;;;;12.40;9.25;;;13.00;99.90;;;;;;4956126;28;20023;-90
2022/04/15 01:28:16;;;;;;;14.82;9.95;;;13.00;99.90;;;;;;4977097;28;20037;-90
2022/04/15 01:30:43;;;;;;;16.77;10.73;;;12.90;99.90;;;;;;4973126;28;20054;-90
2022/04/15 01:33:08;;;;;;;17.85;10.40;;;12.90;99.90;;;;;;4984654;28;20033;-90
2022/04/15 01:35:34;;;;;;;20.75;11.23;;;12.90;99.90;;;;;;4955480;28;20026;-91
2022/04/15 01:38:02;;;;;;;18.67;10.48;;;12.80;99.90;;;;;;4973772;28;20467;-90
2022/04/15 01:40:28;;;;;;;26.50;11.55;;;12.80;99.90;;;;;;4997725;28;20018;-90
2022/04/15 01:42:54;;;;;;;26.15;11.65;;;12.70;99.90;;;;;;4976154;28;20103;-90
2022/04/15 01:45:19;;;;;;;23.85;11.75;;;12.70;99.90;;;;;;4975809;28;20036;-90
2022/04/15 01:47:45;;;;;;;23.42;11.32;;;12.60;99.90;;;;;;4986452;28;20026;-90
2022/04/15 01:50:11;;;;;;;20.35;10.77;;;12.60;99.90;;;;;;4978815;28;20076;-90
2022/04/15 01:52:37;;;;;;;23.60;10.57;;;12.60;99.90;;;;;;4950785;28;20129;-90
2022/04/15 01:55:03;;;;;;;15.10;11.07;;;12.50;99.90;;;;;;4967435;28;20034;-90
2022/04/15 01:57:29;;;;;;;13.55;10.77;;;12.50;99.90;;;;;;4983415;28;20026;-90
2022/04/15 01:59:55;;;;;;;15.75;10.68;;;12.50;99.90;;;;;;4991063;28;20033;-91
2022/04/15 02:02:20;;;;;;;15.73;11.10;;;12.40;99.90;;;;;;4979755;28;20029;-91
2022/04/15 02:04:46;;;;;;;14.50;10.48;;;12.40;99.90;;;;;;4973573;28;20038;-90
2022/04/15 02:07:12;;;;;;;15.60;11.25;;;12.30;99.90;;;;;;4974851;28;20029;-90
2022/04/15 02:09:38;;;;;;;14.15;10.70;;;12.30;99.90;;;;;;4966467;28;20033;-90
2022/04/15 02:12:04;;;;;;;14.90;10.38;;;12.30;99.90;;;;;;4973990;28;20031;-89
2022/04/15 02:14:30;;;;;;;11.43;9.75;;;12.30;99.90;;;;;;4978006;28;20037;-90
2022/04/15 02:16:55;;;;;;;14.88;10.80;;;12.20;99.90;;;;;;4974277;28;20491;-89
2022/04/15 02:19:21;;;;;;;12.68;10.40;;;12.20;99.90;;;;;;4975526;28;20475;-89
2022/04/15 02:21:48;;;;;;;12.45;9.75;;;12.10;99.90;;;;;;4986967;28;20023;-90
2022/04/15 02:24:14;;;;;;;14.50;10.63;;;12.10;99.90;;;;;;4964164;28;20473;-89
2022/04/15 02:26:40;;;;;;;12.43;9.98;;;12.10;99.90;;;;;;4975200;28;20030;-90
2022/04/15 02:29:06;;;;;;;12.32;10.05;;;12.00;99.90;;;;;;4955168;28;20034;-90
2022/04/15 02:31:31;;;;;;;13.73;9.38;;;12.10;99.90;;;;;;4962597;28;20062;-90
2022/04/15 02:33:57;;;;;;;10.35;9.25;;;12.00;99.90;;;;;;4976304;28;20484;-90
2022/04/15 02:36:22;;;;;;;11.90;9.02;;;12.00;99.90;;;;;;4979319;28;20022;-89
2022/04/15 02:38:48;;;;;;;10.68;8.80;;;11.90;99.90;;;;;;4970161;28;20026;-90
2022/04/15 02:41:14;;;;;;;11.73;9.05;;;11.90;99.90;;;;;;5008022;28;20075;-90
2022/04/15 02:43:40;;;;;;;11.75;8.70;;;11.90;99.90;;;;;;4975383;28;20131;-90
2022/04/15 02:46:12;;;;;;;11.30;9.07;;;11.90;99.90;;;;;;4953739;28;20112;-90
2022/04/15 02:48:38;;;;;;;10.00;8.55;;;11.80;99.90;;;;;;4992825;28;20061;-90
2022/04/15 02:51:04;;;;;;;9.93;8.32;;;11.80;99.90;;;;;;4956655;28;20128;-91
2022/04/15 02:53:30;;;;;;;11.23;8.13;;;11.80;99.90;;;;;;4985675;28;20089;-91
2022/04/15 02:55:57;;;;;;;9.88;8.13;;;11.70;99.90;;;;;;4962663;28;20117;-90
2022/04/15 02:58:23;;;;;;;9.63;7.80;;;11.70;99.90;;;;;;4968789;28;20081;-90
2022/04/15 03:00:48;;;;;;;9.57;7.63;;;11.70;99.90;;;;;;4992771;28;20034;-90
2022/04/15 03:03:14;;;;;;;10.82;8.70;;;11.60;99.90;;;;;;4963104;28;20157;-90
2022/04/15 03:05:41;;;;;;;10.57;8.35;;;11.60;99.90;;;;;;4980995;28;20092;-90
2022/04/15 03:08:07;;;;;;;10.38;7.93;;;11.60;99.90;;;;;;4985682;28;20026;-90
2022/04/15 03:10:33;;;;;;;11.02;8.23;;;11.60;99.90;;;;;;4968568;28;20038;-89
2022/04/15 03:12:59;;;;;;;11.82;9.38;;;11.60;99.90;;;;;;4990592;28;20451;-90
2022/04/15 03:15:25;;;;;;;12.55;8.88;;;11.60;99.90;;;;;;4982910;28;20032;-89
2022/04/15 03:17:51;;;;;;;10.80;9.05;;;11.50;99.90;;;;;;4986479;28;20368;-89
2022/04/15 03:20:17;;;;;;;12.70;9.73;;;11.50;99.90;;;;;;4975900;28;20030;-90
2022/04/15 03:22:44;;;;;;;12.75;8.77;;;11.50;99.90;;;;;;4948561;28;20032;-90
2022/04/15 03:25:12;;;;;;;12.25;9.70;;;11.50;99.90;;;;;;5007706;28;20030;-90
2022/04/15 03:27:38;;;;;;;13.10;9.38;;;11.50;99.90;;;;;;4990993;28;20025;-90
2022/04/15 03:30:05;;;;;;;14.60;9.50;;;11.50;99.90;;;;;;4963635;28;20038;-90
2022/04/15 03:32:31;;;;;;;12.18;9.18;;;11.50;99.90;;;;;;4988942;28;20032;-90
2022/04/15 03:34:57;;;;;;;11.15;9.27;;;11.50;99.90;;;;;;4989825;28;20030;-91
2022/04/15 03:37:24;;;;;;;14.50;9.90;;;11.50;99.90;;;;;;4976856;28;20034;-90
2022/04/15 03:39:50;;;;;;;13.90;9.65;;;11.50;99.90;;;;;;4993371;28;20518;-90
2022/04/15 03:42:15;;;;;;;11.70;9.23;;;11.50;99.90;;;;;;4975887;28;20069;-90
2022/04/15 03:44:41;;;;;;;13.15;9.73;;;11.50;99.90;;;;;;4970899;28;20380;-90
2022/04/15 03:47:07;;;;;;;15.20;9.45;;;11.50;99.90;;;;;;4969160;28;20034;-90
2022/04/15 03:49:33;;;;;;;17.58;10.77;;;11.40;99.90;;;;;;4983238;28;20484;-90
2022/04/15 03:51:59;;;;;;;13.00;9.68;;;11.40;99.90;;;;;;4980654;28;20030;-91
2022/04/15 03:54:26;;;;;;;14.68;9.65;;;11.40;99.90;;;;;;4987778;28;20026;-90
2022/04/15 03:56:51;;;;;;;13.13;9.73;;;11.40;99.90;;;;;;4982674;28;20443;-90
2022/04/15 03:59:17;;;;;;;12.10;9.25;;;11.40;99.90;;;;;;4976681;28;20050;-90
2022/04/15 04:01:44;;;;;;;13.10;10.60;;;11.40;99.90;;;;;;4979861;28;20026;-90
2022/04/15 04:04:09;;;;;;;14.23;10.30;;;11.40;99.90;;;;;;4974659;28;20054;-90
2022/04/15 04:06:35;;;;;;;13.40;9.98;;;11.40;99.90;;;;;;4971810;28;20433;-90
2022/04/15 04:09:01;;;;;;;17.00;10.80;;;11.40;99.90;;;;;;4990543;28;20124;-90
2022/04/15 04:11:27;;;;;;;14.95;10.20;;;11.40;99.90;;;;;;4988255;28;20030;-90
2022/04/15 04:13:53;;;;;;;15.73;10.30;;;11.40;99.90;;;;;;4971969;28;20128;-90
2022/04/15 04:16:18;;;;;;;12.43;9.77;;;11.40;99.90;;;;;;4974193;28;20072;-90
2022/04/15 04:18:45;;;;;;;14.20;10.35;;;11.40;99.90;;;;;;4972074;28;20500;-90
2022/04/15 04:21:12;;;;;;;14.98;10.50;;;11.40;99.90;;;;;;4977720;28;20033;-90
2022/04/15 04:23:38;;;;;;;13.95;9.82;;;11.40;99.90;;;;;;4984530;28;20551;-90
2022/04/15 04:26:04;;;;;;;14.48;9.90;;;11.40;99.90;;;;;;5002259;28;20020;-90
2022/04/15 04:28:31;;;;;;;13.32;9.18;;;11.40;99.90;;;;;;4980993;28;20033;-90
2022/04/15 04:30:57;;;;;;;13.88;9.75;;;11.30;99.90;;;;;;4970857;28;20037;-90
2022/04/15 04:33:22;;;;;;;13.70;9.73;;;11.30;99.90;;;;;;4979499;28;20030;-90
2022/04/15 04:35:49;;;;;;;13.18;9.50;;;11.40;99.90;;;;;;4981966;28;20093;-90
2022/04/15 04:38:15;;;;;;;17.08;9.88;;;11.40;99.90;;;;;;4959927;28;20045;-89
2022/04/15 04:40:42;;;;;;;16.88;9.32;;;11.30;99.90;;;;;;4970001;28;20030;-89
2022/04/15 04:43:09;;;;;;;15.18;9.18;;;11.30;99.90;;;;;;4972912;28;20563;-89
2022/04/15 04:45:36;;;;;;;15.27;9.30;;;11.30;99.90;;;;;;4983268;28;20089;-89
2022/04/15 04:48:03;;;;;;;15.57;8.65;;;11.30;99.90;;;;;;4972614;28;20533;-90
2022/04/15 04:50:29;;;;;;;13.07;9.35;;;11.30;99.90;;;;;;4978141;28;20475;-89
2022/04/15 04:52:55;;;;;;;13.85;8.65;;;11.30;99.90;;;;;;4970804;28;20034;-90
2022/04/15 04:55:21;;;;;;;14.48;8.73;;;11.30;99.90;;;;;;4995925;28;20319;-91
2022/04/15 04:57:46;;;;;;;13.30;8.30;;;11.20;99.90;;;;;;4982905;28;20499;-90
2022/04/15 05:00:15;;;;;;;12.32;8.20;;;11.20;99.90;;;;;;4980811;28;20034;-90
2022/04/15 05:02:41;;;;;;;11.65;8.27;;;11.20;99.90;;;;;;4997477;28;20657;-91
2022/04/15 05:05:07;;;;;;;10.57;8.00;;;11.20;99.90;;;;;;4994830;28;20018;-91
2022/04/15 05:07:34;;;;;;;13.48;8.77;;;11.10;99.90;;;;;;4989279;28;20161;-90
2022/04/15 05:09:59;;;;;;;13.93;9.13;;;11.10;99.90;;;;;;4998555;28;20026;-91
2022/04/15 05:12:25;;;;;;;13.30;8.88;;;11.10;99.90;;;;;;4980478;28;20383;-91
2022/04/15 05:14:51;;;;;;;10.63;8.15;;;11.10;99.90;;;;;;4999196;28;20022;-89
2022/04/15 05:17:17;;;;;;;12.60;8.55;;;11.00;99.90;;;;;;4961524;28;20121;-90
2022/04/15 05:19:44;;;;;;;15.00;9.07;;;11.00;99.90;;;;;;4981968;28;20018;-90
2022/04/15 05:22:10;;;;;;;11.20;7.93;;;11.00;99.90;;;;;;4999451;28;20212;-90
2022/04/15 05:24:36;;;;;;;14.52;9.40;;;11.00;99.90;;;;;;4982957;28;20072;-90
2022/04/15 05:27:01;;;;;;;13.45;8.60;;;11.00;99.90;;;;;;4975400;28;20027;-91
2022/04/15 05:29:27;;;;;;;14.00;8.43;;;11.00;99.90;;;;;;4981981;28;20025;-91
2022/04/15 05:31:53;;;;;;;11.23;8.07;;;11.00;99.90;;;;;;4982118;28;20551;-91
2022/04/15 05:34:19;;;;;;;13.30;7.90;;;11.00;99.90;;;;;;4995543;28;20133;-91
2022/04/15 05:36:44;;;;;;;14.27;8.38;;;10.90;99.90;;;;;;4978039;28;20121;-91
2022/04/15 05:39:10;;;;;;;11.27;7.95;;;10.90;99.90;;;;;;4982913;28;20034;-91
2022/04/15 05:41:35;;;;;;;12.32;7.47;;;10.90;99.90;;;;;;4982707;28;20026;-90
2022/04/15 05:44:03;;;;;;;12.90;8.38;;;10.90;99.90;;;;;;4980837;28;20049;-91
2022/04/15 05:46:30;;;;;;;13.80;8.13;;;10.90;99.90;;;;;;4963740;28;20380;-91
2022/04/15 05:48:55;;;;;;;13.30;8.45;;;10.90;99.90;;;;;;4991744;28;20024;-90
2022/04/15 05:51:21;;;;;;;9.77;6.93;;;10.90;99.90;;;;;;4994861;28;20033;-89
2022/04/15 05:53:47;;;;;;;14.23;6.90;;;10.90;99.90;;;;;;4984495;28;20054;-90
2022/04/15 05:56:12;;;;;;;11.20;7.20;;;10.90;99.90;;;;;;4992552;28;20531;-90
2022/04/15 05:58:40;;;;;;;9.40;6.70;;;11.00;99.90;;;;;;4968229;28;20468;-91
2022/04/15 06:01:09;;;;;;;12.18;6.35;;;11.00;99.90;;;;;;4998646;28;20021;-90
2022/04/15 06:03:37;;;;;;;13.40;6.30;;;11.00;99.90;;;;;;5008574;28;20110;-91
2022/04/15 06:06:03;;;;;;;10.45;5.75;;;11.00;99.90;;;;;;4976996;28;20071;-90
2022/04/15 06:08:29;;;;;;;10.38;5.40;;;11.00;99.90;;;;;;4992216;28;20038;-91
2022/04/15 06:10:55;;;;;;;10.65;5.40;;;11.00;99.90;;;;;;4995460;28;20025;-91
2022/04/15 06:13:25;;;;;;;10.60;5.13;;;11.00;99.90;;;;;;4979066;28;20042;-90
2022/04/15 06:15:56;;;;;;;11.37;5.53;;;11.00;99.90;;;;;;4982182;28;20045;-90
2022/04/15 06:18:34;;;;;;;9.85;4.93;;;11.00;99.90;;;;;;5001445;28;20033;-91
2022/04/15 06:21:00;;;;;;;7.72;4.45;;;11.00;99.90;;;;;;5005181;28;20026;-91
2022/04/15 06:23:27;;;;;;;7.20;4.70;;;11.00;99.90;;;;;;4961367;28;20063;-90
2022/04/15 06:25:53;;;;;;;6.97;4.22;;;11.10;99.90;;;;;;4976104;28;20125;-91
2022/04/15 06:28:21;;;;;;;6.38;4.50;;;11.10;99.90;;;;;;4995447;28;20045;-91
2022/04/15 06:30:52;;;;;;;6.93;4.60;;;11.10;99.90;;;;;;4985905;28;20034;-91
2022/04/15 06:33:20;;;;;;;9.43;5.10;;;11.10;99.90;;;;;;4982795;28;20034;-91
2022/04/15 06:35:46;;;;;;;8.63;4.40;;;11.10;99.90;;;;;;4973351;28;20388;-90
2022/04/15 06:38:12;;;;;;;5.82;3.88;;;11.10;99.90;;;;;;4980463;28;20049;-90
2022/04/15 06:40:38;;;;;;;6.22;4.25;;;11.10;99.90;;;;;;4975134;28;20022;-91
2022/04/15 06:43:05;;;;;;;7.85;4.10;;;11.20;99.90;;;;;;4980635;28;20399;-90
2022/04/15 06:45:30;;;;;;;5.65;3.60;;;11.20;99.90;;;;;;4983532;28;20026;-90
2022/04/15 06:47:56;;;;;;;6.65;3.70;;;11.20;99.90;;;;;;4972881;28;20084;-91
2022/04/15 06:50:22;;;;;;;7.47;3.47;;;11.20;99.90;;;;;;4956036;28;20039;-91
2022/04/15 06:52:48;;;;;;;5.82;3.60;;;11.30;99.90;;;;;;4972009;28;20023;-91
2022/04/15 06:55:14;;;;;;;4.47;2.90;;;11.30;99.90;;;;;;4970411;28;20033;-92
2022/04/15 06:57:39;;;;;;;5.07;2.85;;;11.30;99.90;;;;;;4974220;28;20133;-92
2022/04/15 07:00:06;;;;;;;4.85;2.97;;;11.30;99.90;;;;;;4982516;28;20042;-91
2022/04/15 07:02:34;;;;;;;4.75;3.13;;;11.40;99.90;;;;;;4979841;28;20026;-92
2022/04/15 07:04:59;;;;;;;5.25;3.20;;;11.40;99.90;;;;;;4966479;28;20030;-91
2022/04/15 07:07:25;;;;;;;5.53;3.10;;;11.40;99.90;;;;;;4965856;28;20125;-92
2022/04/15 07:09:51;;;;;;;6.38;3.38;;;11.50;99.90;;;;;;4979571;28;20030;-91
2022/04/15 07:12:17;;;;;;;6.00;3.67;;;11.50;99.90;;;;;;4982679;28;20041;-92
2022/04/15 07:14:43;;;;;;;10.68;3.13;;;11.50;99.90;;;;;;4982294;28;20032;-91
2022/04/15 07:17:09;;;;;;;6.30;3.13;;;11.60;99.90;;;;;;4982106;28;20026;-91
2022/04/15 07:19:34;;;;;;;4.93;2.95;;;11.70;99.90;;;;;;4983473;28;20041;-91
2022/04/15 07:22:00;;;;;;;3.05;2.42;;;11.70;99.90;;;;;;4966953;28;20022;-91
2022/04/15 07:24:27;;;;;;;4.95;2.50;;;11.70;99.90;;;;;;4981233;28;20109;-91
2022/04/15 07:26:53;;;;;;;5.10;2.20;;;11.70;99.90;;;;;;4977353;28;20032;-91
2022/04/15 07:29:20;;;;;;;3.97;2.38;;;11.80;99.90;;;;;;4979907;28;20018;-91
2022/04/15 07:31:46;;;;;;;3.65;2.40;;;11.80;99.90;;;;;;4965846;28;20025;-91
2022/04/15 07:34:12;;;;;;;3.95;2.35;;;11.80;99.90;;;;;;4992366;28;20018;-91
2022/04/15 07:39:06;;;;;;;3.80;2.38;;;11.90;99.90;;;;;;4976634;28;20058;-91
2022/04/15 07:41:32;;;;;;;4.22;2.20;;;11.90;99.90;;;;;;4995194;28;20051;-90
2022/04/15 07:43:58;;;;;;;3.70;2.10;;;12.00;99.90;;;;;;4964976;28;20041;-91
2022/04/15 07:46:24;;;;;;;4.40;2.10;;;12.00;99.90;;;;;;4979404;28;20536;-92
2022/04/15 07:48:49;;;;;;;3.72;2.05;;;12.10;99.90;;;;;;4981607;28;20025;-91
2022/04/15 07:51:15;;;;;;;3.78;1.95;;;12.10;99.90;;;;;;4981723;28;20057;-91
2022/04/15 07:53:41;;;;;;;3.90;1.90;;;12.20;99.90;;;;;;4981494;28;20034;-91
2022/04/15 07:56:07;;;;;;;4.47;1.88;;;12.20;99.90;;;;;;4997535;28;20018;-92
2022/04/15 07:58:33;;;;;;;5.80;2.20;;;12.30;99.90;;;;;;4997253;28;20026;-91
2022/04/15 08:01:00;;;;;;;3.10;2.00;;;12.30;99.90;;;;;;4979196;28;20034;-91
2022/04/15 08:03:26;;;;;;;4.38;2.20;;;12.40;99.90;;;;;;4974267;28;20037;-91
2022/04/15 08:05:52;;;;;;;3.00;1.83;;;12.40;99.90;;;;;;5005767;28;20014;-91
2022/04/15 08:08:18;;;;;;;5.40;1.98;;;12.40;99.90;;;;;;5002664;28;20032;-90
2022/04/15 08:10:44;;;;;;;5.25;2.25;;;12.50;99.90;;;;;;4987263;28;20423;-91
2022/04/15 08:13:09;;;;;;;4.30;2.03;;;12.50;99.90;;;;;;4988162;28;20443;-91
2022/04/15 08:15:35;;;;;;;3.67;1.65;;;12.50;99.90;;;;;;4991744;28;20032;-94
2022/04/15 08:18:01;;;;;;;4.65;2.50;;;12.60;99.90;;;;;;5003720;28;20045;-94
2022/04/15 08:20:27;;;;;;;3.92;2.10;;;12.60;99.90;;;;;;5003987;28;20006;-94
2022/04/15 08:22:53;;;;;;;4.25;2.17;;;12.60;99.90;;;;;;4988184;28;20056;-93
2022/04/15 08:25:19;;;;;;;3.38;2.00;;;12.70;99.90;;;;;;5017137;28;20081;-94
2022/04/15 08:27:44;;;;;;;4.88;2.30;;;12.70;99.90;;;;;;4965334;28;20018;-94
2022/04/15 08:30:10;;;;;;;2.80;1.90;;;12.70;99.90;;;;;;4997684;28;20463;-95
2022/04/15 08:32:36;;;;;;;4.40;2.10;;;12.80;99.90;;;;;;4998228;28;20029;-94
2022/04/15 08:35:04;;;;;;;3.47;2.10;;;12.80;99.90;;;;;;5000356;28;20105;-95
2022/04/15 08:37:29;;;;;;;4.88;2.30;;;12.80;99.90;;;;;;4982327;28;20581;-94
2022/04/15 08:39:57;;;;;;;3.78;2.15;;;12.80;99.90;;;;;;4950609;28;20053;-94
2022/04/15 08:42:23;;;;;;;4.55;2.00;;;12.90;99.90;;;;;;4998745;28;20018;-95
2022/04/15 08:44:52;;;;;;;4.65;2.30;;;12.90;99.90;;;;;;4982959;28;20088;-94
2022/04/15 08:47:18;;;;;;;6.32;3.05;;;12.90;99.90;;;;;;4984130;28;20041;-95
2022/04/15 08:49:45;;;;;;;4.35;2.42;;;12.90;99.90;;;;;;5007043;28;20456;-95
2022/04/15 08:52:15;;;;;;;5.25;2.60;;;12.90;99.90;;;;;;5007502;28;20029;-94
2022/04/15 08:54:41;;;;;;;4.40;2.65;;;12.90;99.90;;;;;;5007774;28;20016;-95
2022/04/15 08:57:07;;;;;;;8.73;3.38;;;13.00;99.90;;;;;;5021706;23;20784;-94
2022/04/15 08:59:34;;;;;;;6.13;2.85;;;13.00;99.90;;;;;;5016986;28;20540;-93
2022/04/15 09:01:59;;;;;;;6.22;2.65;;;13.00;99.90;;;;;;5000981;28;20034;-94
2022/04/15 09:04:26;;;;;;;7.32;3.13;;;13.00;99.90;;;;;;5000746;28;20044;-93
2022/04/15 09:07:00;;;;;;;7.00;3.20;;;13.00;99.90;;;;;;5017386;28;20083;-93
2022/04/15 09:09:30;;;;;;;7.30;3.17;;;13.10;99.90;;;;;;5000924;28;20037;-92
2022/04/15 09:11:57;;;;;;;4.00;2.67;;;13.10;99.90;;;;;;5016838;28;20467;-92
2022/04/15 09:14:24;;;;;;;4.97;2.97;;;13.10;99.90;;;;;;5000926;28;20287;-93
2022/04/15 09:16:50;;;;;;;6.57;3.40;;;13.10;99.90;;;;;;5014445;28;20022;-91
2022/04/15 09:19:17;;;;;;;6.60;3.10;;;13.10;99.90;;;;;;5037584;28;20116;-91
2022/04/15 09:21:53;;;;;;;5.85;3.42;;;13.10;99.90;;;;;;5017483;28;20125;-92
2022/04/15 09:24:36;;;;;;;5.97;3.33;;;13.20;99.90;;;;;;5017853;28;20017;-93
2022/04/15 09:27:08;;;;;;;5.60;3.10;;;13.20;99.90;;;;;;5017920;28;20025;-92
2022/04/15 09:29:34;;;;;;;6.15;3.05;;;13.20;99.90;;;;;;5001926;28;20104;-93
2022/04/15 09:32:09;;;;;;;5.68;3.30;;;13.20;99.90;;;;;;5017607;28;20080;-92
2022/04/15 09:34:58;;;;;;;7.18;3.10;;;13.20;99.90;;;;;;5018504;28;20017;-92
2022/04/15 09:37:35;;;;;;;6.65;3.13;;;13.20;99.90;;;;;;5002738;28;20100;-92
2022/04/15 09:40:12;;;;;;;5.43;3.30;;;13.20;99.90;;;;;;5022574;28;20060;-93
2022/04/15 09:42:45;;;;;;;8.02;3.53;;;13.20;99.90;;;;;;5031461;28;20064;-93
2022/04/15 09:45:22;;;;;;;9.30;4.18;;;13.30;99.90;;;;;;5019885;28;20071;-92
2022/04/15 09:47:53;;;;;;;7.63;3.75;;;13.30;99.90;;;;;;5004399;28;20088;-93
2022/04/15 09:50:27;;;;;;;8.15;4.57;;;13.30;99.90;;;;;;5004471;28;20030;-94
2022/04/15 09:52:55;;;;;;;7.22;3.95;;;13.30;99.90;;;;;;5020291;28;20478;-92
2022/04/15 09:55:25;;;;;;;7.68;4.07;;;13.30;99.90;;;;;;5004054;28;20029;-93
2022/04/15 09:57:52;;;;;;;8.10;4.30;;;13.30;99.90;;;;;;5003381;28;20049;-93
2022/04/15 10:00:19;;;;;;;7.82;4.15;;;13.30;99.90;;;;;;5020169;28;20047;-94
2022/04/15 10:02:49;;;;;;;8.65;4.25;;;13.30;99.90;;;;;;5001036;28;20030;-92
2022/04/15 10:05:15;;;;;;;7.93;4.13;;;13.30;99.90;;;;;;5002120;28;20032;-93
2022/04/15 10:07:42;;;;;;;9.05;4.10;;;13.30;99.90;;;;;;5020974;28;20493;-93
2022/04/15 10:10:09;;;;;;;5.55;4.32;;;13.30;99.90;;;;;;5021184;28;20089;-92
2022/04/15 10:12:39;;;;;;;6.55;3.95;;;13.30;99.90;;;;;;5004071;28;20079;-92
2022/04/15 10:15:07;;;;;;;8.52;4.53;;;13.30;99.90;;;;;;5004703;28;20517;-93
2022/04/15 10:17:34;;;;;;;6.18;3.90;;;13.30;99.90;;;;;;5019761;28;20449;-93
2022/04/15 10:20:01;;;;;;;5.53;3.95;;;13.30;99.90;;;;;;5019958;28;20017;-93
2022/04/15 10:22:27;;;;;;;9.18;4.68;;;13.30;99.90;;;;;;5019659;28;20473;-92
2022/04/15 10:24:53;;;;;;;7.78;4.90;;;13.30;99.90;;;;;;5003620;28;20037;-93
2022/04/15 10:27:30;;;;;;;6.50;4.30;;;13.30;99.90;;;;;;5019644;28;20025;-93
2022/04/15 10:30:25;;;;;;;7.63;4.30;;;13.30;99.90;;;;;;5019500;28;20030;-92
2022/04/15 10:32:57;;;;;;;8.55;4.65;;;13.40;99.90;;;;;;4985797;28;20064;-92
2022/04/15 10:35:32;;;;;;;9.32;4.60;;;13.40;99.90;;;;;;5004237;28;20096;-92
2022/04/15 10:38:13;;;;;;;6.90;4.43;;;13.40;99.90;;;;;;5019457;28;20505;-92
2022/04/15 10:40:45;;;;;;;7.05;4.15;;;13.40;99.90;;;;;;5019586;28;20017;-92
2022/04/15 10:43:23;;;;;;;8.18;3.90;;;13.40;99.90;;;;;;5002744;28;20030;-93
2022/04/15 10:46:15;;;;;;;6.85;4.07;;;13.40;99.90;;;;;;5019327;28;20024;-93
2022/04/15 10:48:41;;;;;;;9.13;4.63;;;13.40;99.90;;;;;;5019002;28;20029;-92
2022/04/15 10:51:13;;;;;;;7.45;5.10;;;13.40;99.90;;;;;;5002798;28;20025;-92
2022/04/15 10:53:39;;;;;;;7.10;4.70;;;13.40;99.90;;;;;;5019119;28;20030;-92
2022/04/15 10:56:09;;;;;;;6.07;4.45;;;13.40;99.90;;;;;;4999449;28;20033;-93
2022/04/15 11:01:52;;;;;;;9.98;5.10;;;13.50;99.90;;;;;;4983732;28;20049;-92
2022/04/15 11:04:23;;;;;;;7.20;4.70;;;13.50;99.90;;;;;;5021586;28;20021;-92
2022/04/15 11:06:50;;;;;;;10.43;4.72;;;13.50;99.90;;;;;;5035384;28;20526;-92
2022/04/15 11:09:16;;;;;;;8.60;5.28;;;13.50;99.90;;;;;;5025521;28;20017;-92
2022/04/15 11:11:45;;;;;;;7.43;5.07;;;13.50;99.90;;;;;;5002180;28;20390;-91
2022/04/15 11:14:14;;;;;;;7.22;5.10;;;13.50;99.90;;;;;;5018238;28;20028;-94
2022/04/15 11:16:48;;;;;;;9.35;5.20;;;13.60;99.90;;;;;;5002440;28;20060;-92
2022/04/15 11:19:24;;;;;;;7.75;5.20;;;13.60;99.90;;;;;;5002246;28;20037;-91
2022/04/15 11:21:50;;;;;;;7.80;5.07;;;13.60;99.90;;;;;;5018740;28;20025;-92
2022/04/15 11:24:32;;;;;;;9.13;4.65;;;13.60;99.90;;;;;;5018555;28;20018;-90
2022/04/15 11:27:03;;;;;;;8.35;4.90;;;13.60;99.90;;;;;;5020087;28;20048;-92
2022/04/15 11:29:39;;;;;;;8.87;4.90;;;13.60;99.90;;;;;;5018351;28;20530;-91
2022/04/15 11:32:07;;;;;;;8.27;5.15;;;13.60;99.90;;;;;;5017603;28;20310;-92
2022/04/15 11:34:33;;;;;;;7.90;5.00;;;13.60;99.90;;;;;;5017819;28;20455;-91
2022/04/15 11:37:04;;;;;;;7.97;5.63;;;13.60;99.90;;;;;;5001386;28;20099;-91
2022/04/15 11:39:35;;;;;;;10.85;5.68;;;13.60;99.90;;;;;;5018574;28;20021;-92
2022/04/15 11:42:05;;;;;;;6.97;5.13;;;13.60;99.90;;;;;;5018019;28;20527;-92
2022/04/15 11:44:32;;;;;;;7.18;4.93;;;13.60;99.90;;;;;;5018029;28;20033;-91
2022/04/15 11:49:48;;;;;;;7.80;5.50;;;13.60;99.90;;;;;;5036126;28;20056;-91
2022/04/15 11:52:26;;;;;;;8.43;5.55;;;13.60;99.90;;;;;;5002510;28;20501;-92
2022/04/15 11:54:52;;;;;;;7.55;5.25;;;13.60;99.90;;;;;;5018739;28;20414;-91
2022/04/15 11:57:19;;;;;;;12.25;6.47;;;13.60;99.90;;;;;;5018098;28;20028;-92
2022/04/15 11:59:45;;;;;;;9.32;5.72;;;13.60;99.90;;;;;;5002004;28;20046;-93
2022/04/15 12:02:14;;;;;;;6.50;4.75;;;13.60;99.90;;;;;;5018638;28;20025;-92
2022/04/15 12:04:50;;;;;;;8.50;5.18;;;13.60;99.90;;;;;;5021520;28;20018;-94
2022/04/15 12:07:17;;;;;;;12.10;5.53;;;13.70;99.90;;;;;;5030591;28;20056;-91
2022/04/15 12:09:45;;;;;;;8.30;5.35;;;13.70;99.90;;;;;;5025614;28;20017;-93
2022/04/15 12:12:11;;;;;;;7.65;5.30;;;13.70;99.90;;;;;;5027611;28;20018;-92
2022/04/15 12:14:40;;;;;;;10.52;5.88;;;13.70;99.90;;;;;;5008136;28;20029;-92
2022/04/15 12:17:11;;;;;;;7.70;5.20;;;13.70;99.90;;;;;;5017868;28;20483;-92
2022/04/15 12:19:37;;;;;;;7.45;5.13;;;13.70;99.90;;;;;;5017964;28;20063;-92
2022/04/15 12:22:04;;;;;;;7.82;4.82;;;13.70;99.90;;;;;;5001461;28;20037;-93
2022/04/15 12:24:30;;;;;;;6.65;4.43;;;13.70;99.90;;;;;;5017763;28;20156;-93
2022/04/15 12:27:00;;;;;;;7.68;4.82;;;13.70;99.90;;;;;;5001647;28;20030;-93
2022/04/15 12:32:25;;;;;;;10.20;5.63;;;13.70;99.90;;;;;;5020910;28;20387;-92
2022/04/15 12:35:09;;;;;;;9.05;5.45;;;13.70;99.90;;;;;;5002143;28;20037;-92
2022/04/15 12:37:36;;;;;;;8.13;5.13;;;13.70;99.90;;;;;;5018329;28;20021;-92
2022/04/15 12:40:17;;;;;;;7.72;5.45;;;13.70;99.90;;;;;;5019136;28;20122;-92
2022/04/15 12:42:45;;;;;;;9.38;5.22;;;13.80;99.90;;;;;;5017734;28;20056;-92
2022/04/15 12:45:15;;;;;;;10.13;5.32;;;13.70;99.90;;;;;;5017784;28;20029;-92
2022/04/15 12:47:41;;;;;;;6.88;4.97;;;13.70;99.90;;;;;;5017456;28;20034;-92
2022/04/15 12:50:25;;;;;;;6.88;4.97;;;13.70;99.90;;;;;;5017331;28;20100;-92
2022/04/15 12:52:55;;;;;;;9.80;4.93;;;13.80;99.90;;;;;;5001148;28;20060;-93
2022/04/15 12:55:38;;;;;;;8.32;5.20;;;13.80;99.90;;;;;;5017588;28;20048;-92